FVHP weather

Home Park Airport
Home Park, Mashonaland East Province, Zimbabwe

Public forecast

Using degrees Celsius for public forecast. Weather courtesy of forecast.io.

Closest aviation weather report (METAR) to Home Park Airport

Report is more than 2 hours old.

Closest report is Robert Gabriel Mugabe International Airport, 39.9 nm (74.0 km) WNW. Retrieved 2020/04/08 19:00 UTC (3 hours ago):

FVRG 081900Z 11008KT CAVOK 19/14 Q1026 NOSIG

Closest aviation forecast (TAF) to Home Park Airport

Forecast is more than 6 hours old.

Closest forecast is Robert Gabriel Mugabe International Airport, 39.9 nm (74.0 km) WNW. Retrieved 2020/04/08 12:00 UTC (10 hours ago):

TAF FVRG 081000Z 0812/0918 09010KT 9999 SCT030TCU BKN080 PROB30 TEMPO 0813/0816 9000 -TSRA FEW025CB BKN080 BECMG 0818/0820 CAVOK BECMG 0906/0908 9999 SCT020 BECMG 0910/0912 BKN040TCU